sensor_id;sensor_type;location;lat;lon;timestamp;P1;durP1;ratioP1;P2;durP2;ratioP2
36653;SDS011;22650;49.350;20.898;2023-10-31T00:02:13;30.00;;;27.42;;
36653;SDS011;22650;49.350;20.898;2023-10-31T00:04:47;147.18;;;57.92;;
36653;SDS011;22650;49.350;20.898;2023-10-31T00:07:22;54.00;;;48.55;;
36653;SDS011;22650;49.350;20.898;2023-10-31T00:09:55;35.20;;;29.67;;
36653;SDS011;22650;49.350;20.898;2023-10-31T00:12:29;34.28;;;30.65;;
36653;SDS011;22650;49.350;20.898;2023-10-31T00:15:03;29.13;;;26.90;;
36653;SDS011;22650;49.350;20.898;2023-10-31T00:17:36;106.03;;;76.25;;
36653;SDS011;22650;49.350;20.898;2023-10-31T00:20:10;49.00;;;43.58;;
36653;SDS011;22650;49.350;20.898;2023-10-31T00:22:45;44.13;;;39.55;;
36653;SDS011;22650;49.350;20.898;2023-10-31T00:25:19;39.13;;;34.63;;
36653;SDS011;22650;49.350;20.898;2023-10-31T00:27:52;43.17;;;39.25;;
36653;SDS011;22650;49.350;20.898;2023-10-31T00:30:26;69.10;;;49.42;;
36653;SDS011;22650;49.350;20.898;2023-10-31T00:33:00;58.38;;;47.47;;
36653;SDS011;22650;49.350;20.898;2023-10-31T00:35:35;107.10;;;94.72;;
36653;SDS011;22650;49.350;20.898;2023-10-31T00:38:10;176.82;;;129.88;;
36653;SDS011;22650;49.350;20.898;2023-10-31T00:40:44;67.90;;;61.92;;
36653;SDS011;22650;49.350;20.898;2023-10-31T00:43:18;88.13;;;80.22;;
36653;SDS011;22650;49.350;20.898;2023-10-31T00:45:51;96.50;;;86.82;;
36653;SDS011;22650;49.350;20.898;2023-10-31T00:48:25;95.53;;;83.07;;
36653;SDS011;22650;49.350;20.898;2023-10-31T00:50:59;160.55;;;132.35;;
36653;SDS011;22650;49.350;20.898;2023-10-31T00:53:34;78.72;;;70.35;;
36653;SDS011;22650;49.350;20.898;2023-10-31T00:56:08;197.05;;;136.00;;
36653;SDS011;22650;49.350;20.898;2023-10-31T00:58:41;69.25;;;62.25;;
36653;SDS011;22650;49.350;20.898;2023-10-31T01:01:15;65.68;;;59.85;;
36653;SDS011;22650;49.350;20.898;2023-10-31T01:03:49;58.85;;;52.42;;
36653;SDS011;22650;49.350;20.898;2023-10-31T01:06:23;62.35;;;55.50;;
36653;SDS011;22650;49.350;20.898;2023-10-31T01:08:58;66.30;;;59.97;;
36653;SDS011;22650;49.350;20.898;2023-10-31T01:11:31;129.88;;;111.22;;
36653;SDS011;22650;49.350;20.898;2023-10-31T01:14:05;160.10;;;131.02;;
36653;SDS011;22650;49.350;20.898;2023-10-31T01:16:39;91.13;;;82.20;;
36653;SDS011;22650;49.350;20.898;2023-10-31T01:19:13;118.90;;;105.78;;
36653;SDS011;22650;49.350;20.898;2023-10-31T01:21:47;49.22;;;44.10;;
36653;SDS011;22650;49.350;20.898;2023-10-31T01:24:22;50.20;;;43.70;;
36653;SDS011;22650;49.350;20.898;2023-10-31T01:26:56;41.78;;;37.42;;
36653;SDS011;22650;49.350;20.898;2023-10-31T01:29:29;1413.25;;;479.55;;
36653;SDS011;22650;49.350;20.898;2023-10-31T01:32:03;47.83;;;41.60;;
36653;SDS011;22650;49.350;20.898;2023-10-31T01:34:47;43.20;;;38.65;;
36653;SDS011;22650;49.350;20.898;2023-10-31T01:37:21;47.17;;;40.75;;
36653;SDS011;22650;49.350;20.898;2023-10-31T01:39:56;103.22;;;57.78;;
36653;SDS011;22650;49.350;20.898;2023-10-31T01:42:30;298.67;;;181.90;;
36653;SDS011;22650;49.350;20.898;2023-10-31T01:45:05;68.97;;;58.55;;
36653;SDS011;22650;49.350;20.898;2023-10-31T01:47:39;47.75;;;41.47;;
36653;SDS011;22650;49.350;20.898;2023-10-31T01:50:13;46.80;;;42.38;;
36653;SDS011;22650;49.350;20.898;2023-10-31T01:52:47;45.28;;;39.38;;
36653;SDS011;22650;49.350;20.898;2023-10-31T01:55:22;44.65;;;37.38;;
36653;SDS011;22650;49.350;20.898;2023-10-31T01:57:59;53.38;;;41.88;;
36653;SDS011;22650;49.350;20.898;2023-10-31T02:00:34;52.10;;;44.92;;
36653;SDS011;22650;49.350;20.898;2023-10-31T02:03:07;41.67;;;37.15;;
36653;SDS011;22650;49.350;20.898;2023-10-31T02:05:41;56.05;;;44.55;;
36653;SDS011;22650;49.350;20.898;2023-10-31T02:08:15;44.75;;;40.45;;
36653;SDS011;22650;49.350;20.898;2023-10-31T02:10:50;42.28;;;38.17;;
36653;SDS011;22650;49.350;20.898;2023-10-31T02:13:24;44.83;;;36.33;;
36653;SDS011;22650;49.350;20.898;2023-10-31T02:15:58;39.17;;;35.17;;
36653;SDS011;22650;49.350;20.898;2023-10-31T02:18:31;43.40;;;35.92;;
36653;SDS011;22650;49.350;20.898;2023-10-31T02:21:05;48.33;;;33.63;;
36653;SDS011;22650;49.350;20.898;2023-10-31T02:23:40;36.63;;;29.75;;
36653;SDS011;22650;49.350;20.898;2023-10-31T02:26:14;44.40;;;30.92;;
36653;SDS011;22650;49.350;20.898;2023-10-31T02:28:49;29.77;;;26.70;;
36653;SDS011;22650;49.350;20.898;2023-10-31T02:31:23;37.38;;;33.63;;
36653;SDS011;22650;49.350;20.898;2023-10-31T02:33:57;37.85;;;27.33;;
36653;SDS011;22650;49.350;20.898;2023-10-31T02:36:31;39.25;;;26.73;;
36653;SDS011;22650;49.350;20.898;2023-10-31T02:39:07;30.77;;;25.60;;
36653;SDS011;22650;49.350;20.898;2023-10-31T02:41:40;36.60;;;28.20;;
36653;SDS011;22650;49.350;20.898;2023-10-31T02:44:14;39.03;;;28.75;;
36653;SDS011;22650;49.350;20.898;2023-10-31T02:46:50;43.88;;;32.90;;
36653;SDS011;22650;49.350;20.898;2023-10-31T02:49:24;37.00;;;31.33;;
36653;SDS011;22650;49.350;20.898;2023-10-31T02:51:58;34.70;;;24.23;;
36653;SDS011;22650;49.350;20.898;2023-10-31T02:54:33;26.65;;;24.05;;
36653;SDS011;22650;49.350;20.898;2023-10-31T02:57:07;29.38;;;26.40;;
36653;SDS011;22650;49.350;20.898;2023-10-31T02:59:40;711.40;;;365.85;;
36653;SDS011;22650;49.350;20.898;2023-10-31T03:02:14;43.63;;;39.47;;
36653;SDS011;22650;49.350;20.898;2023-10-31T03:04:47;38.92;;;27.38;;
36653;SDS011;22650;49.350;20.898;2023-10-31T03:07:21;37.70;;;34.40;;
36653;SDS011;22650;49.350;20.898;2023-10-31T03:09:56;36.53;;;32.58;;
36653;SDS011;22650;49.350;20.898;2023-10-31T03:12:30;41.70;;;31.73;;
36653;SDS011;22650;49.350;20.898;2023-10-31T03:15:03;40.25;;;35.95;;
36653;SDS011;22650;49.350;20.898;2023-10-31T03:17:38;44.90;;;40.35;;
36653;SDS011;22650;49.350;20.898;2023-10-31T03:20:11;38.40;;;31.83;;
36653;SDS011;22650;49.350;20.898;2023-10-31T03:22:45;360.98;;;229.95;;
36653;SDS011;22650;49.350;20.898;2023-10-31T03:25:20;368.80;;;226.23;;
36653;SDS011;22650;49.350;20.898;2023-10-31T03:27:54;70.15;;;63.15;;
36653;SDS011;22650;49.350;20.898;2023-10-31T03:30:27;46.65;;;41.92;;
36653;SDS011;22650;49.350;20.898;2023-10-31T03:33:02;88.03;;;79.47;;
36653;SDS011;22650;49.350;20.898;2023-10-31T03:35:35;196.93;;;172.30;;
36653;SDS011;22650;49.350;20.898;2023-10-31T03:38:09;186.48;;;126.00;;
36653;SDS011;22650;49.350;20.898;2023-10-31T03:40:45;175.60;;;139.18;;
36653;SDS011;22650;49.350;20.898;2023-10-31T03:43:18;146.23;;;125.80;;
36653;SDS011;22650;49.350;20.898;2023-10-31T03:45:52;75.40;;;69.05;;
36653;SDS011;22650;49.350;20.898;2023-10-31T03:48:27;96.43;;;88.13;;
36653;SDS011;22650;49.350;20.898;2023-10-31T03:51:01;525.08;;;303.95;;
36653;SDS011;22650;49.350;20.898;2023-10-31T03:53:34;101.07;;;92.43;;
36653;SDS011;22650;49.350;20.898;2023-10-31T03:56:09;126.47;;;114.35;;
36653;SDS011;22650;49.350;20.898;2023-10-31T03:58:44;138.48;;;126.28;;
36653;SDS011;22650;49.350;20.898;2023-10-31T04:01:17;231.77;;;190.60;;
36653;SDS011;22650;49.350;20.898;2023-10-31T04:03:51;114.45;;;103.63;;
36653;SDS011;22650;49.350;20.898;2023-10-31T04:06:25;256.48;;;224.93;;
36653;SDS011;22650;49.350;20.898;2023-10-31T04:08:58;138.68;;;127.65;;
36653;SDS011;22650;49.350;20.898;2023-10-31T04:11:33;153.48;;;139.32;;
36653;SDS011;22650;49.350;20.898;2023-10-31T04:14:07;398.83;;;311.70;;
36653;SDS011;22650;49.350;20.898;2023-10-31T04:16:41;662.40;;;478.50;;
36653;SDS011;22650;49.350;20.898;2023-10-31T04:19:17;216.10;;;198.10;;
36653;SDS011;22650;49.350;20.898;2023-10-31T04:21:52;470.85;;;396.83;;
36653;SDS011;22650;49.350;20.898;2023-10-31T04:24:26;401.98;;;365.95;;
36653;SDS011;22650;49.350;20.898;2023-10-31T04:27:01;243.45;;;225.10;;
36653;SDS011;22650;49.350;20.898;2023-10-31T04:29:34;426.30;;;359.73;;
36653;SDS011;22650;49.350;20.898;2023-10-31T04:32:08;453.10;;;406.13;;
36653;SDS011;22650;49.350;20.898;2023-10-31T04:34:42;368.75;;;337.88;;
36653;SDS011;22650;49.350;20.898;2023-10-31T04:37:15;232.07;;;212.63;;
36653;SDS011;22650;49.350;20.898;2023-10-31T04:39:49;266.25;;;247.13;;
36653;SDS011;22650;49.350;20.898;2023-10-31T04:42:24;606.35;;;475.38;;
36653;SDS011;22650;49.350;20.898;2023-10-31T04:44:58;479.60;;;432.38;;
36653;SDS011;22650;49.350;20.898;2023-10-31T04:47:31;1537.28;;;689.85;;
36653;SDS011;22650;49.350;20.898;2023-10-31T04:50:05;1999.90;;;753.58;;
36653;SDS011;22650;49.350;20.898;2023-10-31T04:52:39;347.45;;;322.40;;
36653;SDS011;22650;49.350;20.898;2023-10-31T04:55:13;1161.30;;;473.77;;
36653;SDS011;22650;49.350;20.898;2023-10-31T04:57:50;470.02;;;428.25;;
36653;SDS011;22650;49.350;20.898;2023-10-31T05:00:24;490.90;;;444.13;;
36653;SDS011;22650;49.350;20.898;2023-10-31T05:02:58;1999.90;;;773.70;;
36653;SDS011;22650;49.350;20.898;2023-10-31T05:05:49;369.00;;;341.48;;
36653;SDS011;22650;49.350;20.898;2023-10-31T05:08:23;604.83;;;545.38;;
36653;SDS011;22650;49.350;20.898;2023-10-31T05:10:56;1122.18;;;642.55;;
36653;SDS011;22650;49.350;20.898;2023-10-31T05:13:32;1999.90;;;871.88;;
36653;SDS011;22650;49.350;20.898;2023-10-31T05:16:06;490.48;;;451.10;;
36653;SDS011;22650;49.350;20.898;2023-10-31T05:18:40;482.75;;;440.38;;
36653;SDS011;22650;49.350;20.898;2023-10-31T05:21:18;384.60;;;355.40;;
36653;SDS011;22650;49.350;20.898;2023-10-31T05:23:52;389.23;;;361.98;;
36653;SDS011;22650;49.350;20.898;2023-10-31T05:26:26;355.52;;;330.90;;
36653;SDS011;22650;49.350;20.898;2023-10-31T05:29:02;409.75;;;369.83;;
36653;SDS011;22650;49.350;20.898;2023-10-31T05:31:36;380.77;;;354.25;;
36653;SDS011;22650;49.350;20.898;2023-10-31T05:34:10;349.45;;;324.85;;
36653;SDS011;22650;49.350;20.898;2023-10-31T05:36:43;660.15;;;595.00;;
36653;SDS011;22650;49.350;20.898;2023-10-31T05:39:17;317.80;;;296.05;;
36653;SDS011;22650;49.350;20.898;2023-10-31T05:41:50;331.65;;;308.63;;
36653;SDS011;22650;49.350;20.898;2023-10-31T05:44:25;294.27;;;273.48;;
36653;SDS011;22650;49.350;20.898;2023-10-31T05:46:59;382.40;;;355.25;;
36653;SDS011;22650;49.350;20.898;2023-10-31T05:49:32;956.33;;;641.28;;
36653;SDS011;22650;49.350;20.898;2023-10-31T05:52:06;302.00;;;280.42;;
36653;SDS011;22650;49.350;20.898;2023-10-31T05:54:40;399.95;;;368.33;;
36653;SDS011;22650;49.350;20.898;2023-10-31T05:57:13;289.42;;;268.10;;
36653;SDS011;22650;49.350;20.898;2023-10-31T05:59:48;399.75;;;370.55;;
36653;SDS011;22650;49.350;20.898;2023-10-31T06:02:22;602.70;;;539.42;;
36653;SDS011;22650;49.350;20.898;2023-10-31T06:04:55;329.90;;;303.98;;
36653;SDS011;22650;49.350;20.898;2023-10-31T06:07:30;407.60;;;373.90;;
36653;SDS011;22650;49.350;20.898;2023-10-31T06:10:04;559.97;;;501.98;;
36653;SDS011;22650;49.350;20.898;2023-10-31T06:12:39;417.05;;;375.58;;
36653;SDS011;22650;49.350;20.898;2023-10-31T06:15:14;228.88;;;212.23;;
36653;SDS011;22650;49.350;20.898;2023-10-31T06:17:47;505.92;;;458.52;;
36653;SDS011;22650;49.350;20.898;2023-10-31T06:20:21;291.70;;;269.95;;
36653;SDS011;22650;49.350;20.898;2023-10-31T06:22:55;829.53;;;379.55;;
36653;SDS011;22650;49.350;20.898;2023-10-31T06:25:30;243.35;;;226.27;;
36653;SDS011;22650;49.350;20.898;2023-10-31T06:28:04;217.43;;;201.75;;
36653;SDS011;22650;49.350;20.898;2023-10-31T06:30:39;307.38;;;282.52;;
36653;SDS011;22650;49.350;20.898;2023-10-31T06:33:13;313.00;;;289.63;;
36653;SDS011;22650;49.350;20.898;2023-10-31T06:35:46;352.60;;;323.95;;
36653;SDS011;22650;49.350;20.898;2023-10-31T06:38:20;607.53;;;353.75;;
36653;SDS011;22650;49.350;20.898;2023-10-31T06:40:53;275.23;;;255.48;;
36653;SDS011;22650;49.350;20.898;2023-10-31T06:43:29;220.75;;;204.55;;
36653;SDS011;22650;49.350;20.898;2023-10-31T06:46:07;318.77;;;294.65;;
36653;SDS011;22650;49.350;20.898;2023-10-31T06:48:41;294.77;;;266.88;;
36653;SDS011;22650;49.350;20.898;2023-10-31T06:51:16;765.80;;;291.42;;
36653;SDS011;22650;49.350;20.898;2023-10-31T06:53:50;212.63;;;196.45;;
36653;SDS011;22650;49.350;20.898;2023-10-31T06:56:24;285.30;;;264.25;;
36653;SDS011;22650;49.350;20.898;2023-10-31T06:59:00;273.80;;;254.60;;
36653;SDS011;22650;49.350;20.898;2023-10-31T07:01:35;324.48;;;282.27;;
36653;SDS011;22650;49.350;20.898;2023-10-31T07:04:09;236.88;;;220.15;;
36653;SDS011;22650;49.350;20.898;2023-10-31T07:06:43;837.72;;;558.88;;
36653;SDS011;22650;49.350;20.898;2023-10-31T07:09:17;235.85;;;218.40;;
36653;SDS011;22650;49.350;20.898;2023-10-31T07:11:50;501.42;;;328.52;;
36653;SDS011;22650;49.350;20.898;2023-10-31T07:14:24;209.88;;;195.02;;
36653;SDS011;22650;49.350;20.898;2023-10-31T07:16:59;258.45;;;238.98;;
36653;SDS011;22650;49.350;20.898;2023-10-31T07:19:33;405.35;;;351.17;;
36653;SDS011;22650;49.350;20.898;2023-10-31T07:22:06;467.42;;;417.02;;
36653;SDS011;22650;49.350;20.898;2023-10-31T07:24:40;687.60;;;437.40;;
36653;SDS011;22650;49.350;20.898;2023-10-31T07:27:14;216.07;;;200.60;;
36653;SDS011;22650;49.350;20.898;2023-10-31T07:29:48;387.80;;;350.00;;
36653;SDS011;22650;49.350;20.898;2023-10-31T07:32:40;732.03;;;439.30;;
36653;SDS011;22650;49.350;20.898;2023-10-31T07:35:14;729.08;;;568.00;;
36653;SDS011;22650;49.350;20.898;2023-10-31T07:37:48;186.77;;;171.00;;
36653;SDS011;22650;49.350;20.898;2023-10-31T07:40:21;1011.03;;;593.10;;
36653;SDS011;22650;49.350;20.898;2023-10-31T07:42:55;757.15;;;498.52;;
36653;SDS011;22650;49.350;20.898;2023-10-31T07:45:29;477.88;;;411.23;;
36653;SDS011;22650;49.350;20.898;2023-10-31T07:48:04;708.80;;;443.90;;
36653;SDS011;22650;49.350;20.898;2023-10-31T07:50:37;292.38;;;269.65;;
36653;SDS011;22650;49.350;20.898;2023-10-31T07:53:13;651.70;;;477.27;;
36653;SDS011;22650;49.350;20.898;2023-10-31T07:55:46;199.55;;;184.10;;
36653;SDS011;22650;49.350;20.898;2023-10-31T07:58:20;205.68;;;189.43;;
36653;SDS011;22650;49.350;20.898;2023-10-31T08:00:53;314.85;;;284.67;;
36653;SDS011;22650;49.350;20.898;2023-10-31T08:03:28;682.03;;;350.15;;
36653;SDS011;22650;49.350;20.898;2023-10-31T08:06:03;311.90;;;280.75;;
36653;SDS011;22650;49.350;20.898;2023-10-31T08:08:38;245.98;;;225.68;;
36653;SDS011;22650;49.350;20.898;2023-10-31T08:11:12;287.27;;;263.67;;
36653;SDS011;22650;49.350;20.898;2023-10-31T08:13:46;231.65;;;208.88;;
36653;SDS011;22650;49.350;20.898;2023-10-31T08:16:20;364.70;;;328.33;;
36653;SDS011;22650;49.350;20.898;2023-10-31T08:18:56;368.63;;;337.55;;
36653;SDS011;22650;49.350;20.898;2023-10-31T08:21:30;423.42;;;386.13;;
36653;SDS011;22650;49.350;20.898;2023-10-31T08:24:07;300.80;;;274.73;;
36653;SDS011;22650;49.350;20.898;2023-10-31T08:26:42;304.75;;;278.80;;
36653;SDS011;22650;49.350;20.898;2023-10-31T08:29:16;282.85;;;255.88;;
36653;SDS011;22650;49.350;20.898;2023-10-31T08:31:49;331.15;;;303.23;;
36653;SDS011;22650;49.350;20.898;2023-10-31T08:34:24;725.88;;;508.75;;
36653;SDS011;22650;49.350;20.898;2023-10-31T08:36:58;293.60;;;265.35;;
36653;SDS011;22650;49.350;20.898;2023-10-31T08:39:32;329.60;;;302.60;;
36653;SDS011;22650;49.350;20.898;2023-10-31T08:42:05;1006.67;;;638.38;;
36653;SDS011;22650;49.350;20.898;2023-10-31T08:44:39;391.05;;;344.25;;
36653;SDS011;22650;49.350;20.898;2023-10-31T08:47:13;596.67;;;290.60;;
36653;SDS011;22650;49.350;20.898;2023-10-31T08:49:49;503.30;;;410.27;;
36653;SDS011;22650;49.350;20.898;2023-10-31T08:52:22;397.63;;;312.20;;
36653;SDS011;22650;49.350;20.898;2023-10-31T08:54:56;333.20;;;220.77;;
36653;SDS011;22650;49.350;20.898;2023-10-31T08:57:29;1799.88;;;668.85;;
36653;SDS011;22650;49.350;20.898;2023-10-31T09:00:05;485.23;;;308.20;;
36653;SDS011;22650;49.350;20.898;2023-10-31T09:02:40;356.23;;;285.05;;
36653;SDS011;22650;49.350;20.898;2023-10-31T09:05:16;307.23;;;258.65;;
36653;SDS011;22650;49.350;20.898;2023-10-31T09:07:50;251.93;;;201.38;;
36653;SDS011;22650;49.350;20.898;2023-10-31T09:10:24;383.50;;;280.35;;
36653;SDS011;22650;49.350;20.898;2023-10-31T09:12:58;157.15;;;135.07;;
36653;SDS011;22650;49.350;20.898;2023-10-31T09:15:32;1178.72;;;442.45;;
36653;SDS011;22650;49.350;20.898;2023-10-31T09:18:05;108.35;;;96.78;;
36653;SDS011;22650;49.350;20.898;2023-10-31T09:20:41;310.15;;;237.85;;
36653;SDS011;22650;49.350;20.898;2023-10-31T09:23:14;829.47;;;407.65;;
36653;SDS011;22650;49.350;20.898;2023-10-31T09:25:48;299.25;;;181.77;;
36653;SDS011;22650;49.350;20.898;2023-10-31T09:28:22;1264.65;;;365.20;;
36653;SDS011;22650;49.350;20.898;2023-10-31T09:30:56;86.03;;;77.55;;
36653;SDS011;22650;49.350;20.898;2023-10-31T09:33:31;189.77;;;158.50;;
36653;SDS011;22650;49.350;20.898;2023-10-31T09:36:07;585.50;;;292.38;;
36653;SDS011;22650;49.350;20.898;2023-10-31T09:38:41;305.48;;;202.55;;
36653;SDS011;22650;49.350;20.898;2023-10-31T09:41:15;459.00;;;242.55;;
36653;SDS011;22650;49.350;20.898;2023-10-31T09:43:49;114.55;;;103.47;;
36653;SDS011;22650;49.350;20.898;2023-10-31T09:46:22;590.00;;;234.57;;
36653;SDS011;22650;49.350;20.898;2023-10-31T09:48:56;378.15;;;208.02;;
36653;SDS011;22650;49.350;20.898;2023-10-31T09:51:31;567.63;;;304.25;;
36653;SDS011;22650;49.350;20.898;2023-10-31T09:54:05;122.95;;;110.43;;
36653;SDS011;22650;49.350;20.898;2023-10-31T09:56:40;110.35;;;98.10;;
36653;SDS011;22650;49.350;20.898;2023-10-31T09:59:15;149.05;;;122.10;;
36653;SDS011;22650;49.350;20.898;2023-10-31T10:01:49;210.05;;;172.15;;
36653;SDS011;22650;49.350;20.898;2023-10-31T10:04:22;226.63;;;202.23;;
36653;SDS011;22650;49.350;20.898;2023-10-31T10:06:59;111.38;;;100.43;;
36653;SDS011;22650;49.350;20.898;2023-10-31T10:09:34;145.80;;;131.75;;
36653;SDS011;22650;49.350;20.898;2023-10-31T10:12:08;377.88;;;187.25;;
36653;SDS011;22650;49.350;20.898;2023-10-31T10:14:45;340.10;;;229.50;;
36653;SDS011;22650;49.350;20.898;2023-10-31T10:17:21;196.02;;;179.77;;
36653;SDS011;22650;49.350;20.898;2023-10-31T10:20:07;1802.97;;;599.88;;
36653;SDS011;22650;49.350;20.898;2023-10-31T10:22:46;339.63;;;307.70;;
36653;SDS011;22650;49.350;20.898;2023-10-31T10:25:20;1810.82;;;764.90;;
36653;SDS011;22650;49.350;20.898;2023-10-31T10:27:53;483.02;;;437.52;;
36653;SDS011;22650;49.350;20.898;2023-10-31T10:30:27;479.00;;;437.90;;
36653;SDS011;22650;49.350;20.898;2023-10-31T10:33:01;395.67;;;362.83;;
36653;SDS011;22650;49.350;20.898;2023-10-31T10:35:34;1887.70;;;780.17;;
36653;SDS011;22650;49.350;20.898;2023-10-31T10:38:10;679.67;;;611.08;;
36653;SDS011;22650;49.350;20.898;2023-10-31T10:40:46;879.80;;;671.03;;
36653;SDS011;22650;49.350;20.898;2023-10-31T10:43:21;654.95;;;596.60;;
36653;SDS011;22650;49.350;20.898;2023-10-31T10:45:56;688.30;;;628.22;;
36653;SDS011;22650;49.350;20.898;2023-10-31T10:48:31;584.55;;;537.13;;
36653;SDS011;22650;49.350;20.898;2023-10-31T10:51:10;644.00;;;589.45;;
36653;SDS011;22650;49.350;20.898;2023-10-31T10:53:49;512.33;;;471.55;;
36653;SDS011;22650;49.350;20.898;2023-10-31T10:56:28;612.22;;;558.85;;
36653;SDS011;22650;49.350;20.898;2023-10-31T10:59:12;584.38;;;536.03;;
36653;SDS011;22650;49.350;20.898;2023-10-31T11:01:51;646.03;;;587.55;;
36653;SDS011;22650;49.350;20.898;2023-10-31T11:04:25;447.45;;;413.17;;
36653;SDS011;22650;49.350;20.898;2023-10-31T11:06:59;574.85;;;522.55;;
36653;SDS011;22650;49.350;20.898;2023-10-31T11:09:36;381.58;;;352.75;;
36653;SDS011;22650;49.350;20.898;2023-10-31T11:12:10;413.80;;;383.38;;
36653;SDS011;22650;49.350;20.898;2023-10-31T11:14:45;489.08;;;448.80;;
36653;SDS011;22650;49.350;20.898;2023-10-31T11:17:22;506.38;;;461.20;;
36653;SDS011;22650;49.350;20.898;2023-10-31T11:19:59;430.05;;;397.23;;
36653;SDS011;22650;49.350;20.898;2023-10-31T11:22:36;663.72;;;431.90;;
36653;SDS011;22650;49.350;20.898;2023-10-31T11:25:14;604.10;;;437.95;;
36653;SDS011;22650;49.350;20.898;2023-10-31T11:28:12;415.55;;;383.42;;
36653;SDS011;22650;49.350;20.898;2023-10-31T11:30:48;443.77;;;407.08;;
36653;SDS011;22650;49.350;20.898;2023-10-31T11:33:22;458.98;;;421.75;;
36653;SDS011;22650;49.350;20.898;2023-10-31T11:36:00;400.77;;;371.48;;
36653;SDS011;22650;49.350;20.898;2023-10-31T11:38:34;539.42;;;490.95;;
36653;SDS011;22650;49.350;20.898;2023-10-31T11:41:10;429.25;;;394.85;;
36653;SDS011;22650;49.350;20.898;2023-10-31T11:43:53;402.15;;;370.77;;
36653;SDS011;22650;49.350;20.898;2023-10-31T11:46:27;337.73;;;313.20;;
36653;SDS011;22650;49.350;20.898;2023-10-31T11:49:01;387.52;;;357.95;;
36653;SDS011;22650;49.350;20.898;2023-10-31T11:51:37;423.98;;;390.65;;
36653;SDS011;22650;49.350;20.898;2023-10-31T11:54:10;420.45;;;388.92;;
36653;SDS011;22650;49.350;20.898;2023-10-31T11:56:51;1034.13;;;577.42;;
36653;SDS011;22650;49.350;20.898;2023-10-31T11:59:25;451.70;;;414.45;;
36653;SDS011;22650;49.350;20.898;2023-10-31T12:02:12;439.58;;;406.05;;
36653;SDS011;22650;49.350;20.898;2023-10-31T12:04:46;439.70;;;405.23;;
36653;SDS011;22650;49.350;20.898;2023-10-31T12:07:20;441.88;;;408.48;;
36653;SDS011;22650;49.350;20.898;2023-10-31T12:09:54;515.40;;;476.05;;
36653;SDS011;22650;49.350;20.898;2023-10-31T12:12:31;572.25;;;523.67;;
36653;SDS011;22650;49.350;20.898;2023-10-31T12:15:05;739.30;;;664.67;;
36653;SDS011;22650;49.350;20.898;2023-10-31T12:17:39;556.53;;;508.38;;
36653;SDS011;22650;49.350;20.898;2023-10-31T12:20:13;645.13;;;587.25;;
36653;SDS011;22650;49.350;20.898;2023-10-31T12:22:47;624.00;;;571.70;;
36653;SDS011;22650;49.350;20.898;2023-10-31T12:25:33;568.65;;;522.17;;
36653;SDS011;22650;49.350;20.898;2023-10-31T12:28:20;611.42;;;558.67;;
36653;SDS011;22650;49.350;20.898;2023-10-31T12:30:55;576.47;;;529.83;;
36653;SDS011;22650;49.350;20.898;2023-10-31T12:33:29;601.78;;;547.25;;
36653;SDS011;22650;49.350;20.898;2023-10-31T12:36:03;857.55;;;651.35;;
36653;SDS011;22650;49.350;20.898;2023-10-31T12:38:38;463.42;;;427.77;;
36653;SDS011;22650;49.350;20.898;2023-10-31T12:41:11;543.20;;;497.08;;
36653;SDS011;22650;49.350;20.898;2023-10-31T12:43:46;505.17;;;460.92;;
36653;SDS011;22650;49.350;20.898;2023-10-31T12:46:24;502.40;;;462.55;;
36653;SDS011;22650;49.350;20.898;2023-10-31T12:48:58;533.15;;;490.90;;
36653;SDS011;22650;49.350;20.898;2023-10-31T12:51:32;587.38;;;539.28;;
36653;SDS011;22650;49.350;20.898;2023-10-31T12:54:05;729.83;;;661.10;;
36653;SDS011;22650;49.350;20.898;2023-10-31T12:56:40;1999.90;;;921.63;;
36653;SDS011;22650;49.350;20.898;2023-10-31T12:59:17;762.70;;;690.92;;
36653;SDS011;22650;49.350;20.898;2023-10-31T13:01:55;1800.53;;;961.20;;
36653;SDS011;22650;49.350;20.898;2023-10-31T13:04:30;887.08;;;790.78;;
36653;SDS011;22650;49.350;20.898;2023-10-31T13:07:05;948.28;;;805.65;;
36653;SDS011;22650;49.350;20.898;2023-10-31T13:09:40;901.03;;;807.50;;
36653;SDS011;22650;49.350;20.898;2023-10-31T13:12:15;754.53;;;690.53;;
36653;SDS011;22650;49.350;20.898;2023-10-31T13:14:50;764.47;;;701.88;;
36653;SDS011;22650;49.350;20.898;2023-10-31T13:17:23;734.42;;;672.40;;
36653;SDS011;22650;49.350;20.898;2023-10-31T13:19:57;750.10;;;689.05;;
36653;SDS011;22650;49.350;20.898;2023-10-31T13:22:30;691.38;;;634.00;;
36653;SDS011;22650;49.350;20.898;2023-10-31T13:25:04;784.30;;;712.72;;
36653;SDS011;22650;49.350;20.898;2023-10-31T13:27:42;674.25;;;619.70;;
36653;SDS011;22650;49.350;20.898;2023-10-31T13:30:20;729.15;;;667.95;;
36653;SDS011;22650;49.350;20.898;2023-10-31T13:32:57;617.55;;;569.78;;
36653;SDS011;22650;49.350;20.898;2023-10-31T13:35:30;540.20;;;499.23;;
36653;SDS011;22650;49.350;20.898;2023-10-31T13:38:05;659.58;;;604.08;;
36653;SDS011;22650;49.350;20.898;2023-10-31T13:40:39;744.28;;;678.22;;
36653;SDS011;22650;49.350;20.898;2023-10-31T13:43:12;532.90;;;493.08;;
36653;SDS011;22650;49.350;20.898;2023-10-31T13:45:47;756.22;;;687.03;;
36653;SDS011;22650;49.350;20.898;2023-10-31T13:48:21;419.65;;;389.92;;
36653;SDS011;22650;49.350;20.898;2023-10-31T13:50:55;374.63;;;348.27;;
36653;SDS011;22650;49.350;20.898;2023-10-31T13:53:28;361.55;;;335.27;;
36653;SDS011;22650;49.350;20.898;2023-10-31T13:56:02;409.20;;;378.65;;
36653;SDS011;22650;49.350;20.898;2023-10-31T13:58:36;341.40;;;315.27;;
36653;SDS011;22650;49.350;20.898;2023-10-31T14:01:11;341.77;;;314.63;;
36653;SDS011;22650;49.350;20.898;2023-10-31T14:03:45;379.95;;;344.85;;
36653;SDS011;22650;49.350;20.898;2023-10-31T14:06:19;266.20;;;244.20;;
36653;SDS011;22650;49.350;20.898;2023-10-31T14:08:52;114.72;;;94.20;;
36653;SDS011;22650;49.350;20.898;2023-10-31T14:11:26;118.18;;;74.65;;
36653;SDS011;22650;49.350;20.898;2023-10-31T14:14:00;89.10;;;58.40;;
36653;SDS011;22650;49.350;20.898;2023-10-31T14:16:39;73.53;;;48.28;;
36653;SDS011;22650;49.350;20.898;2023-10-31T14:19:16;68.78;;;50.58;;
36653;SDS011;22650;49.350;20.898;2023-10-31T14:21:50;70.50;;;50.45;;
36653;SDS011;22650;49.350;20.898;2023-10-31T14:24:24;60.60;;;53.78;;
36653;SDS011;22650;49.350;20.898;2023-10-31T14:26:57;103.22;;;94.97;;
36653;SDS011;22650;49.350;20.898;2023-10-31T14:29:32;99.90;;;91.78;;
36653;SDS011;22650;49.350;20.898;2023-10-31T14:32:08;166.05;;;154.20;;